createdAt,value
2023-04-15T00:00:59.133Z,94
2023-04-15T00:10:59.211Z,95
2023-04-15T00:20:59.166Z,97
2023-04-15T00:30:59.133Z,100
2023-04-15T00:40:59.372Z,100
2023-04-15T00:50:59.150Z,100
2023-04-15T01:00:59.103Z,100
2023-04-15T01:10:59.088Z,100
2023-04-15T01:20:59.139Z,100
2023-04-15T01:30:59.058Z,100
2023-04-15T01:40:59.094Z,100
2023-04-15T01:50:59.097Z,100
2023-04-15T02:00:59.113Z,100
2023-04-15T02:10:59.081Z,100
2023-04-15T02:20:59.125Z,100
2023-04-15T02:30:59.151Z,100
2023-04-15T02:40:59.094Z,100
2023-04-15T02:50:59.077Z,100
2023-04-15T03:00:59.106Z,100
2023-04-15T03:10:59.086Z,100
2023-04-15T03:20:59.076Z,100
2023-04-15T03:30:59.099Z,100
2023-04-15T03:40:59.048Z,100
2023-04-15T03:50:59.069Z,100
2023-04-15T04:00:59.074Z,100
2023-04-15T04:10:59.071Z,100
2023-04-15T04:20:59.034Z,100
2023-04-15T04:30:59.016Z,100
2023-04-15T04:40:59.030Z,100
2023-04-15T04:50:59.023Z,100
2023-04-15T05:00:59.031Z,100
2023-04-15T05:10:59.035Z,100
2023-04-15T05:20:59.040Z,100
2023-04-15T05:30:59.031Z,100
2023-04-15T05:40:59.036Z,100
2023-04-15T05:50:59.011Z,100
2023-04-15T06:00:59.000Z,100
2023-04-15T06:10:58.990Z,100
2023-04-15T06:20:59.044Z,100
2023-04-15T06:30:59.008Z,100
2023-04-15T06:40:59.044Z,100
2023-04-15T06:50:59.061Z,100
2023-04-15T07:00:59.046Z,100
2023-04-15T07:10:59.029Z,100
2023-04-15T07:20:59.040Z,100
2023-04-15T07:30:59.031Z,100
2023-04-15T07:40:59.018Z,100
2023-04-15T07:50:59.029Z,100
2023-04-15T08:00:58.998Z,100
2023-04-15T08:10:58.993Z,100
2023-04-15T08:20:59.003Z,100
2023-04-15T08:30:59.092Z,100
2023-04-15T08:40:59.003Z,100
2023-04-15T08:50:58.978Z,100
2023-04-15T09:00:59.043Z,100
2023-04-15T09:10:59.028Z,100
2023-04-15T09:20:58.991Z,100
2023-04-15T09:30:59.039Z,97
2023-04-15T09:40:59.001Z,97
2023-04-15T09:50:58.991Z,93
2023-04-15T10:00:58.951Z,92
2023-04-15T10:10:58.981Z,92
2023-04-15T10:20:58.997Z,88
2023-04-15T10:30:59.027Z,80
2023-04-15T10:40:58.950Z,85
2023-04-15T10:50:59.001Z,81
2023-04-15T11:00:58.952Z,75
2023-04-15T11:10:58.959Z,74
2023-04-15T11:20:58.987Z,65
2023-04-15T11:30:58.983Z,65
2023-04-15T11:40:58.973Z,65
2023-04-15T11:50:58.904Z,65
2023-04-15T12:00:58.989Z,66
2023-04-15T12:10:58.980Z,65
2023-04-15T12:20:58.958Z,65
2023-04-15T12:30:58.961Z,64
2023-04-15T12:40:58.959Z,66
2023-04-15T12:50:58.935Z,64
2023-04-15T13:00:58.867Z,59
2023-04-15T13:10:58.876Z,56
2023-04-15T13:20:58.962Z,56
2023-04-15T13:30:58.909Z,58
2023-04-15T13:40:58.883Z,56
2023-04-15T13:50:58.871Z,55
2023-04-15T14:00:58.848Z,55
2023-04-15T14:10:58.964Z,56
2023-04-15T14:20:58.874Z,58
2023-04-15T14:30:58.922Z,54
2023-04-15T14:40:58.872Z,54
2023-04-15T14:50:58.767Z,58
2023-04-15T15:00:58.833Z,60
2023-04-15T15:10:58.817Z,63
2023-04-15T15:20:58.804Z,66
2023-04-15T15:30:58.894Z,69
2023-04-15T15:40:58.748Z,71
2023-04-15T15:50:58.814Z,72
2023-04-15T16:01:01.084Z,73
2023-04-15T16:10:58.777Z,74
2023-04-15T16:20:58.793Z,76
2023-04-15T16:30:58.798Z,75
2023-04-15T16:40:58.795Z,79
2023-04-15T16:50:58.739Z,81
2023-04-15T17:00:58.771Z,75
2023-04-15T17:10:58.748Z,76
2023-04-15T17:20:58.711Z,78
2023-04-15T17:30:58.756Z,89
2023-04-15T17:40:58.772Z,95
2023-04-15T17:50:58.761Z,100
2023-04-15T18:00:58.681Z,100
2023-04-15T18:10:58.700Z,100
2023-04-15T18:20:58.675Z,100
2023-04-15T18:30:58.684Z,100
2023-04-15T18:40:58.669Z,100
2023-04-15T18:50:58.702Z,100
2023-04-15T19:00:58.736Z,100
2023-04-15T19:10:58.667Z,100
2023-04-15T19:20:58.668Z,100
2023-04-15T19:30:58.718Z,100
2023-04-15T19:40:58.704Z,100
2023-04-15T19:50:58.660Z,100
2023-04-15T20:00:58.672Z,100
2023-04-15T20:10:58.681Z,100
2023-04-15T20:20:58.664Z,100
2023-04-15T20:30:58.680Z,100
2023-04-15T20:40:58.670Z,100
2023-04-15T20:50:58.707Z,100
2023-04-15T21:00:58.754Z,100
2023-04-15T21:10:58.688Z,100
2023-04-15T21:20:58.707Z,100
2023-04-15T21:30:58.689Z,100
2023-04-15T21:40:58.681Z,100
2023-04-15T21:50:58.679Z,100
2023-04-15T22:00:58.696Z,100
2023-04-15T22:10:58.662Z,100
2023-04-15T22:20:58.698Z,100
2023-04-15T22:30:58.710Z,100
2023-04-15T22:40:58.718Z,100
2023-04-15T22:50:58.659Z,100
2023-04-15T23:00:58.710Z,100
2023-04-15T23:10:58.694Z,100
2023-04-15T23:20:58.701Z,100
2023-04-15T23:31:00.382Z,100
2023-04-15T23:40:58.719Z,100
2023-04-15T23:50:58.716Z,100
